createdAt,value
2022-12-09T05:02:40.345Z,13.02
2022-12-09T05:05:07.701Z,12.55
2022-12-09T05:07:34.564Z,14.10
2022-12-09T05:10:01.801Z,13.83
2022-12-09T05:12:28.694Z,13.60
2022-12-09T05:14:55.788Z,13.30
2022-12-09T05:17:22.739Z,15.55
2022-12-09T05:19:49.684Z,14.63
2022-12-09T05:22:20.053Z,13.13
2022-12-09T05:24:49.782Z,13.82
2022-12-09T05:27:16.783Z,12.57
2022-12-09T05:29:43.747Z,12.18
2022-12-09T05:32:10.502Z,11.10
2022-12-09T05:34:37.439Z,11.67
2022-12-09T05:37:04.356Z,11.55
2022-12-09T05:39:31.047Z,11.02
2022-12-09T05:41:57.723Z,10.85
2022-12-09T05:44:24.512Z,12.35
2022-12-09T05:46:51.375Z,11.77
2022-12-09T05:49:18.522Z,11.98
2022-12-09T05:51:45.501Z,11.80
2022-12-09T05:54:12.200Z,11.43
2022-12-09T05:56:42.970Z,11.07
2022-12-09T05:59:14.466Z,11.93
2022-12-09T06:01:41.389Z,10.90
2022-12-09T06:04:08.330Z,12.82
2022-12-09T06:06:35.250Z,11.55
2022-12-09T06:09:02.743Z,12.20
2022-12-09T06:11:30.083Z,12.57
2022-12-09T06:13:57.077Z,11.75
2022-12-09T06:16:25.055Z,11.98
2022-12-09T06:18:51.929Z,12.25
2022-12-09T06:21:21.194Z,10.75
2022-12-09T06:23:50.586Z,11.40
2022-12-09T06:26:26.963Z,12.38
2022-12-09T06:28:54.895Z,11.43
2022-12-09T06:31:22.302Z,10.98
2022-12-09T06:33:58.528Z,11.48
2022-12-09T06:36:27.470Z,10.97
2022-12-09T06:38:56.675Z,12.00
2022-12-09T06:41:23.820Z,11.32
2022-12-09T06:43:50.817Z,11.30
2022-12-09T06:46:26.265Z,12.32
2022-12-09T06:48:55.013Z,12.23
2022-12-09T06:51:23.611Z,11.70
2022-12-09T06:53:50.783Z,12.80
2022-12-09T06:56:18.491Z,12.32
2022-12-09T06:58:46.591Z,12.77
2022-12-09T07:01:21.977Z,13.00
2022-12-09T07:03:52.201Z,12.90
2022-12-09T07:06:38.336Z,12.68
2022-12-09T07:09:09.035Z,12.13
2022-12-09T07:11:36.631Z,12.93
2022-12-09T07:14:04.399Z,12.17
2022-12-09T07:16:31.261Z,13.73
2022-12-09T07:18:58.336Z,12.73
2022-12-09T07:21:25.546Z,13.45
2022-12-09T07:23:52.610Z,12.57
2022-12-09T07:26:20.650Z,14.30
2022-12-09T07:28:50.160Z,13.63
2022-12-09T07:31:25.929Z,14.15
2022-12-09T07:33:54.657Z,13.77
2022-12-09T07:36:26.006Z,15.73
2022-12-09T07:38:57.186Z,14.40
2022-12-09T07:41:24.566Z,15.27
2022-12-09T07:43:51.753Z,15.40
2022-12-09T07:46:20.221Z,14.68
2022-12-09T07:48:49.077Z,14.68
2022-12-09T07:51:16.997Z,15.77
2022-12-09T07:53:43.872Z,17.42
2022-12-09T07:56:14.828Z,16.60
2022-12-09T07:58:43.104Z,16.70
2022-12-09T08:01:13.412Z,18.05
2022-12-09T08:03:42.508Z,18.90
2022-12-09T08:06:14.008Z,17.88
2022-12-09T08:08:41.085Z,18.50
2022-12-09T08:11:13.026Z,18.80
2022-12-09T08:13:42.412Z,20.02
2022-12-09T08:16:11.503Z,19.97
2022-12-09T08:18:39.042Z,20.42
2022-12-09T08:21:14.694Z,20.23
2022-12-09T08:23:41.330Z,21.42
2022-12-09T08:26:10.381Z,20.30
2022-12-09T08:28:37.896Z,19.63
2022-12-09T08:31:09.451Z,20.55
2022-12-09T08:33:37.300Z,20.08
2022-12-09T08:36:07.866Z,19.80
2022-12-09T08:38:34.612Z,19.67
2022-12-09T08:41:16.167Z,19.83
2022-12-09T08:43:43.645Z,19.25
2022-12-09T08:46:11.381Z,18.98
2022-12-09T08:48:42.625Z,18.95
2022-12-09T08:51:11.389Z,19.63
2022-12-09T08:53:38.437Z,18.83
2022-12-09T08:56:13.165Z,18.27
2022-12-09T08:58:41.133Z,18.30
2022-12-09T09:01:14.110Z,19.92
2022-12-09T09:03:40.856Z,19.17
2022-12-09T09:06:10.809Z,18.90
2022-12-09T09:08:39.431Z,18.17
2022-12-09T09:11:16.028Z,18.65
2022-12-09T09:13:44.490Z,18.30
2022-12-09T09:16:14.984Z,19.70
2022-12-09T09:18:42.714Z,20.60
2022-12-09T09:21:11.839Z,20.02
2022-12-09T09:23:38.780Z,19.65
2022-12-09T09:26:05.774Z,19.13
2022-12-09T09:28:32.705Z,20.13
2022-12-09T09:31:01.201Z,21.00
2022-12-09T09:33:29.022Z,21.83
2022-12-09T09:36:05.555Z,22.25
2022-12-09T09:38:35.363Z,21.65
2022-12-09T09:41:07.601Z,20.05
2022-12-09T09:43:38.317Z,20.90
2022-12-09T09:46:06.211Z,18.58
2022-12-09T09:48:36.005Z,19.10
2022-12-09T09:51:07.258Z,19.40
2022-12-09T09:53:35.624Z,19.83
2022-12-09T09:56:31.468Z,18.30
2022-12-09T09:59:17.683Z,19.83
2022-12-09T10:01:55.194Z,23.38
2022-12-09T10:04:34.462Z,19.13
2022-12-09T10:07:13.465Z,18.25
2022-12-09T10:10:05.448Z,17.70
2022-12-09T10:13:17.585Z,17.95
2022-12-09T10:15:53.232Z,18.35
2022-12-09T10:18:23.590Z,18.45
2022-12-09T10:20:50.744Z,17.95
2022-12-09T10:23:18.369Z,18.07
2022-12-09T10:25:50.911Z,16.48
2022-12-09T10:28:33.908Z,19.02
2022-12-09T10:31:00.889Z,16.02
2022-12-09T10:33:30.589Z,16.80
2022-12-09T10:35:58.548Z,16.57
2022-12-09T10:38:28.895Z,17.52
2022-12-09T10:41:07.995Z,16.98
2022-12-09T10:43:44.168Z,17.08
2022-12-09T10:46:19.519Z,17.20
2022-12-09T10:48:47.332Z,19.37
2022-12-09T10:51:15.959Z,17.40
2022-12-09T10:53:58.799Z,16.60
2022-12-09T10:56:34.379Z,16.35
2022-12-09T10:59:22.483Z,17.17
2022-12-09T11:01:57.657Z,16.00
2022-12-09T11:04:36.363Z,15.75
2022-12-09T11:07:03.272Z,15.52
2022-12-09T11:09:33.160Z,14.80
2022-12-09T11:12:01.344Z,15.73
2022-12-09T11:14:35.144Z,15.00
2022-12-09T11:17:24.268Z,15.90
2022-12-09T11:20:08.362Z,15.68
2022-12-09T11:22:40.249Z,14.63
2022-12-09T11:25:28.054Z,15.60
2022-12-09T11:27:58.439Z,14.67
2022-12-09T11:30:32.599Z,15.15
2022-12-09T11:33:06.126Z,15.60
2022-12-09T11:35:45.714Z,15.68
2022-12-09T11:38:31.990Z,16.08
2022-12-09T11:41:36.410Z,15.70
2022-12-09T11:44:14.321Z,15.35
2022-12-09T11:46:41.680Z,15.80
2022-12-09T11:49:17.209Z,16.73
2022-12-09T11:51:59.542Z,15.57
2022-12-09T11:54:32.130Z,15.60
2022-12-09T11:57:00.097Z,21.80
2022-12-09T11:59:37.824Z,20.33
2022-12-09T12:02:22.068Z,17.23
2022-12-09T12:05:21.325Z,15.93
2022-12-09T12:08:21.874Z,14.73
2022-12-09T12:10:59.578Z,15.23
2022-12-09T12:13:48.668Z,16.20
2022-12-09T12:16:34.821Z,15.05
2022-12-09T12:19:33.499Z,16.33
2022-12-09T12:22:22.029Z,15.97
2022-12-09T12:25:00.555Z,17.63
2022-12-09T12:28:09.363Z,14.70
2022-12-09T12:31:01.920Z,14.90
2022-12-09T12:34:22.907Z,15.02
2022-12-09T12:37:27.963Z,14.97
2022-12-09T12:40:03.779Z,16.10
2022-12-09T12:43:11.222Z,15.40
2022-12-09T12:46:09.958Z,15.35
2022-12-09T12:48:53.194Z,15.40
2022-12-09T12:51:52.536Z,16.27
2022-12-09T12:54:43.725Z,15.65
2022-12-09T12:57:19.679Z,14.50
2022-12-09T12:59:57.829Z,15.38
2022-12-09T13:02:24.429Z,14.80
2022-12-09T13:05:23.476Z,15.43
2022-12-09T13:07:59.525Z,15.13
2022-12-09T13:10:35.390Z,16.38
2022-12-09T13:13:04.878Z,16.38
2022-12-09T13:15:41.896Z,16.73
2022-12-09T13:18:28.797Z,15.83
2022-12-09T13:20:57.735Z,17.75
2022-12-09T13:23:59.311Z,16.80
2022-12-09T13:26:44.602Z,16.63
2022-12-09T13:29:54.926Z,15.65
2022-12-09T13:32:39.619Z,16.30
2022-12-09T13:35:21.235Z,17.42
2022-12-09T13:37:50.007Z,17.20
2022-12-09T13:40:30.723Z,17.15
2022-12-09T13:43:03.477Z,16.55
2022-12-09T13:45:45.133Z,18.13
2022-12-09T13:48:16.449Z,17.70
2022-12-09T13:50:59.433Z,17.92
2022-12-09T13:53:46.970Z,18.73
2022-12-09T13:56:16.509Z,17.85
2022-12-09T13:59:01.793Z,18.40
2022-12-09T14:01:49.818Z,17.33
2022-12-09T14:04:16.410Z,18.42
2022-12-09T14:06:46.313Z,19.20
2022-12-09T14:09:43.932Z,18.90
2022-12-09T14:12:12.946Z,18.73
2022-12-09T14:14:45.640Z,18.45
2022-12-09T14:17:26.235Z,20.25
2022-12-09T14:20:00.738Z,18.65
2022-12-09T14:22:35.714Z,18.67
2022-12-09T14:25:37.551Z,19.07
2022-12-09T14:28:09.996Z,19.25
2022-12-09T14:31:04.733Z,19.15
2022-12-09T14:33:34.877Z,19.48
2022-12-09T14:36:08.767Z,18.05
2022-12-09T14:39:23.498Z,18.43
2022-12-09T14:41:59.067Z,17.55
2022-12-09T14:44:32.914Z,18.10
2022-12-09T14:47:26.386Z,17.73
2022-12-09T14:49:54.530Z,18.50
2022-12-09T14:52:32.453Z,19.07
2022-12-09T14:55:02.031Z,18.25
2022-12-09T14:57:38.719Z,19.08
2022-12-09T15:00:07.075Z,20.20
2022-12-09T15:02:34.114Z,19.73
2022-12-09T15:05:03.116Z,20.00
2022-12-09T15:07:34.484Z,20.90
2022-12-09T15:10:08.663Z,22.05
2022-12-09T15:12:39.145Z,21.15
2022-12-09T15:15:10.221Z,20.25
2022-12-09T15:17:43.288Z,20.00
2022-12-09T15:20:40.257Z,18.67
2022-12-09T15:23:16.866Z,18.92
2022-12-09T15:25:48.240Z,18.38
2022-12-09T15:28:21.456Z,19.83
2022-12-09T15:30:56.210Z,18.63
2022-12-09T15:33:23.432Z,17.83
2022-12-09T15:35:57.567Z,18.02
2022-12-09T15:38:26.586Z,19.00
2022-12-09T15:41:14.990Z,20.10
2022-12-09T15:43:42.714Z,22.23
2022-12-09T15:46:10.236Z,20.90
2022-12-09T15:48:41.813Z,21.10
2022-12-09T15:51:13.184Z,25.25
2022-12-09T15:53:55.319Z,22.70
2022-12-09T15:56:30.238Z,21.10
2022-12-09T15:59:04.727Z,20.75
2022-12-09T16:01:34.471Z,18.63
2022-12-09T16:04:02.481Z,18.52
2022-12-09T16:06:32.226Z,18.75
2022-12-09T16:08:59.988Z,18.37
2022-12-09T16:11:37.904Z,19.67
2022-12-09T16:14:05.422Z,20.95
2022-12-09T16:16:50.829Z,21.13
2022-12-09T16:19:36.499Z,19.10
2022-12-09T16:22:15.743Z,18.33
2022-12-09T16:25:15.877Z,17.90
2022-12-09T16:27:48.988Z,18.52
2022-12-09T16:30:24.079Z,17.65
2022-12-09T16:32:54.633Z,19.13
2022-12-09T16:35:36.309Z,19.97
2022-12-09T16:38:11.769Z,21.27
2022-12-09T16:40:44.633Z,22.25
2022-12-09T16:43:17.177Z,21.45
2022-12-09T16:45:49.722Z,21.90
2022-12-09T16:48:17.866Z,19.30
2022-12-09T16:50:52.855Z,22.20
2022-12-09T16:53:22.217Z,21.08
2022-12-09T16:55:54.055Z,19.88
2022-12-09T16:58:21.094Z,20.13
2022-12-09T17:00:48.483Z,21.10
2022-12-09T17:03:22.745Z,21.45
2022-12-09T17:05:49.345Z,19.85
2022-12-09T17:08:15.993Z,19.15
2022-12-09T17:10:42.898Z,19.50
2022-12-09T17:13:12.254Z,19.77
2022-12-09T17:15:42.046Z,20.10
2022-12-09T17:18:09.646Z,21.35
2022-12-09T17:20:37.532Z,22.25
2022-12-09T17:23:04.533Z,24.55
2022-12-09T17:25:33.283Z,27.87
2022-12-09T17:28:05.666Z,28.10
2022-12-09T17:30:36.682Z,25.23
2022-12-09T17:33:03.272Z,25.45
2022-12-09T17:35:29.966Z,24.95
2022-12-09T17:37:56.457Z,23.67
2022-12-09T17:40:23.010Z,23.90
2022-12-09T17:42:49.658Z,23.40
2022-12-09T17:45:16.239Z,21.52
2022-12-09T17:47:42.800Z,22.60
2022-12-09T17:50:10.039Z,26.73
2022-12-09T17:52:36.865Z,27.23
2022-12-09T17:55:03.536Z,23.13
2022-12-09T17:57:30.133Z,21.42
2022-12-09T17:59:56.770Z,22.95
2022-12-09T18:02:23.344Z,23.10
2022-12-09T18:04:49.964Z,21.27
2022-12-09T18:07:16.472Z,22.65
2022-12-09T18:09:43.052Z,22.42
2022-12-09T18:12:09.776Z,24.33
2022-12-09T18:14:36.262Z,23.50
2022-12-09T18:17:02.789Z,32.78
2022-12-09T18:19:30.294Z,26.00
2022-12-09T18:21:58.168Z,22.92
2022-12-09T18:24:24.701Z,29.88
2022-12-09T18:26:52.027Z,29.03
2022-12-09T18:29:18.684Z,25.70
2022-12-09T18:31:54.194Z,30.65
2022-12-09T18:34:22.068Z,24.83
2022-12-09T18:36:48.613Z,22.77
2022-12-09T18:39:16.239Z,25.07
2022-12-09T18:41:45.833Z,22.70
2022-12-09T18:44:14.358Z,24.33
2022-12-09T18:46:45.075Z,23.52
2022-12-09T18:49:17.976Z,22.98
2022-12-09T18:51:46.130Z,22.37
2022-12-09T18:54:32.629Z,23.85
2022-12-09T18:57:01.899Z,23.98
2022-12-09T18:59:28.679Z,24.55
2022-12-09T19:01:55.254Z,22.40
2022-12-09T19:04:27.052Z,23.37
2022-12-09T19:06:56.908Z,23.25
2022-12-09T19:09:26.760Z,23.10
2022-12-09T19:11:53.520Z,22.48
2022-12-09T19:14:21.817Z,24.50
2022-12-09T19:16:49.209Z,23.57
2022-12-09T19:19:17.980Z,23.10
2022-12-09T19:21:45.688Z,24.10
2022-12-09T19:24:20.350Z,24.15
2022-12-09T19:26:47.750Z,23.08
2022-12-09T19:29:14.872Z,23.60
2022-12-09T19:31:47.095Z,24.42
2022-12-09T19:34:16.611Z,25.67
2022-12-09T19:36:44.320Z,24.25
2022-12-09T19:39:12.652Z,24.77
2022-12-09T19:41:41.006Z,24.90
2022-12-09T19:44:08.547Z,24.90
2022-12-09T19:46:35.289Z,25.27
2022-12-09T19:49:02.660Z,23.98
2022-12-09T19:51:29.263Z,24.15
2022-12-09T19:53:58.570Z,23.47
2022-12-09T19:56:25.915Z,26.35
2022-12-09T19:58:53.940Z,25.55
2022-12-09T20:01:23.881Z,27.95
2022-12-09T20:03:56.086Z,27.05
2022-12-09T20:06:23.143Z,29.40
2022-12-09T20:08:49.996Z,31.80
2022-12-09T20:11:22.735Z,33.75
2022-12-09T20:13:49.822Z,32.75
2022-12-09T20:16:19.180Z,32.85
2022-12-09T20:18:48.345Z,34.93
2022-12-09T20:21:17.698Z,34.17
2022-12-09T20:23:44.822Z,33.70
2022-12-09T20:26:32.591Z,31.30
2022-12-09T20:29:03.074Z,29.48
2022-12-09T20:31:31.421Z,28.57
2022-12-09T20:34:00.878Z,28.48
2022-12-09T20:36:30.550Z,28.73
2022-12-09T20:38:59.784Z,26.75
2022-12-09T20:41:27.962Z,28.08
2022-12-09T20:43:57.174Z,28.97
2022-12-09T20:46:29.147Z,27.35
2022-12-09T20:48:56.672Z,27.73
2022-12-09T20:51:32.812Z,26.55
2022-12-09T20:53:59.880Z,26.25
2022-12-09T20:56:28.458Z,26.33
2022-12-09T20:58:56.104Z,26.38
2022-12-09T21:01:25.272Z,26.92
2022-12-09T21:03:53.545Z,25.73
2022-12-09T21:06:22.594Z,26.30
2022-12-09T21:08:49.591Z,25.97
2022-12-09T21:11:20.532Z,26.23
2022-12-09T21:13:49.469Z,26.60
2022-12-09T21:16:22.029Z,27.42
2022-12-09T21:18:50.098Z,26.63
2022-12-09T21:21:18.319Z,26.37
2022-12-09T21:23:45.267Z,26.02
2022-12-09T21:26:14.382Z,25.42
2022-12-09T21:28:41.714Z,25.55
2022-12-09T21:31:18.008Z,25.17
2022-12-09T21:33:46.050Z,24.63
2022-12-09T21:36:15.858Z,25.95
2022-12-09T21:38:43.581Z,26.92
2022-12-09T21:41:16.555Z,25.27
2022-12-09T21:43:43.765Z,26.08
2022-12-09T21:46:13.300Z,25.37
2022-12-09T21:48:40.576Z,24.58
2022-12-09T21:51:07.964Z,24.50
2022-12-09T21:53:34.996Z,24.95
2022-12-09T21:56:06.655Z,24.83
2022-12-09T21:58:35.007Z,25.93
2022-12-09T22:01:15.452Z,24.95
2022-12-09T22:03:42.728Z,24.95
2022-12-09T22:06:10.721Z,26.10
2022-12-09T22:08:38.943Z,25.92
2022-12-09T22:11:19.142Z,25.80
2022-12-09T22:13:46.019Z,25.65
2022-12-09T22:16:18.169Z,25.45
2022-12-09T22:18:45.086Z,24.95
2022-12-09T22:21:30.495Z,24.70
2022-12-09T22:23:59.295Z,24.33
2022-12-09T22:26:26.831Z,24.02
2022-12-09T22:28:54.020Z,24.65
2022-12-09T22:31:26.318Z,25.08
2022-12-09T22:33:54.822Z,25.23
2022-12-09T22:36:22.389Z,24.70
2022-12-09T22:38:49.371Z,24.95
2022-12-09T22:41:19.380Z,24.58
2022-12-09T22:43:46.177Z,24.65
2022-12-09T22:46:15.888Z,25.73
2022-12-09T22:48:42.995Z,24.13
2022-12-09T22:51:15.455Z,25.95
2022-12-09T22:53:42.554Z,25.27
2022-12-09T22:56:11.528Z,26.40
2022-12-09T22:58:38.871Z,24.98
2022-12-09T23:01:28.686Z,26.00
2022-12-09T23:03:56.488Z,26.48
2022-12-09T23:06:23.952Z,26.20
2022-12-09T23:08:50.701Z,25.90
2022-12-09T23:11:20.445Z,24.88
2022-12-09T23:13:47.464Z,27.17
2022-12-09T23:16:22.950Z,26.83
2022-12-09T23:18:51.211Z,26.40
2022-12-09T23:21:21.419Z,27.00
2022-12-09T23:23:48.570Z,27.02
2022-12-09T23:26:17.296Z,25.73
2022-12-09T23:28:47.515Z,25.92
2022-12-09T23:31:16.327Z,26.38
2022-12-09T23:33:45.114Z,25.63
2022-12-09T23:36:17.109Z,24.77
2022-12-09T23:38:44.273Z,24.53
2022-12-09T23:41:12.580Z,24.50
2022-12-09T23:43:39.190Z,23.45
2022-12-09T23:46:15.199Z,24.75
2022-12-09T23:48:43.008Z,25.83
2022-12-09T23:51:15.049Z,27.03
2022-12-09T23:53:43.225Z,25.88
2022-12-09T23:56:18.545Z,24.55
2022-12-09T23:58:45.917Z,24.92
